createdAt,value
2019-03-05T00:03:41.610Z,6.63
2019-03-05T00:08:54.252Z,6.70
2019-03-05T00:14:06.244Z,6.66
2019-03-05T00:19:35.326Z,6.64
2019-03-05T00:25:10.124Z,6.50
2019-03-05T00:30:43.715Z,6.47
2019-03-05T00:36:17.632Z,6.39
2019-03-05T00:41:44.075Z,6.35
2019-03-05T00:47:15.912Z,6.30
2019-03-05T00:53:01.641Z,6.37
2019-03-05T00:58:36.240Z,6.43
2019-03-05T01:04:42.533Z,6.45
2019-03-05T01:09:51.901Z,6.46
2019-03-05T01:15:01.125Z,6.52
2019-03-05T01:20:11.460Z,6.62
2019-03-05T01:25:45.306Z,6.67
2019-03-05T01:31:19.491Z,6.72
2019-03-05T01:36:32.873Z,6.70
2019-03-05T01:41:42.413Z,6.66
2019-03-05T01:46:49.762Z,6.67
2019-03-05T01:51:59.631Z,6.58
2019-03-05T01:57:09.124Z,6.48
2019-03-05T02:02:21.781Z,6.46
2019-03-05T02:07:35.459Z,6.35
2019-03-05T02:12:50.830Z,6.25
2019-03-05T02:18:02.598Z,6.26
2019-03-05T02:23:31.209Z,6.25
2019-03-05T02:29:05.157Z,6.13
2019-03-05T02:34:52.871Z,6.10
2019-03-05T02:40:23.627Z,6.17
2019-03-05T02:45:44.809Z,6.16
2019-03-05T02:51:23.328Z,6.22
2019-03-05T02:56:43.042Z,6.22
2019-03-05T03:02:09.331Z,6.23
2019-03-05T03:07:19.212Z,6.18
2019-03-05T03:12:27.748Z,6.06
2019-03-05T03:17:41.545Z,6.00
2019-03-05T03:22:57.808Z,5.95
2019-03-05T03:28:06.349Z,5.91
2019-03-05T03:33:16.274Z,5.79
2019-03-05T03:38:31.088Z,5.68
2019-03-05T03:43:44.325Z,5.55
2019-03-05T03:48:56.770Z,5.51
2019-03-05T03:54:05.398Z,5.52
2019-03-05T03:59:35.590Z,5.53
2019-03-05T04:04:44.253Z,5.46
2019-03-05T04:09:55.053Z,5.46
2019-03-05T04:15:03.491Z,5.34
2019-03-05T04:20:15.471Z,5.27
2019-03-05T04:25:25.247Z,5.28
2019-03-05T04:30:35.097Z,5.13
2019-03-05T04:35:47.818Z,5.06
2019-03-05T04:40:57.923Z,5.01
2019-03-05T04:46:31.139Z,4.98
2019-03-05T04:51:46.895Z,4.96
2019-03-05T04:56:57.847Z,4.97
2019-03-05T05:02:06.702Z,4.98
2019-03-05T05:07:19.995Z,4.98
2019-03-05T05:12:31.655Z,5.02
2019-03-05T05:17:47.988Z,5.08
2019-03-05T05:22:55.971Z,5.17
2019-03-05T05:28:04.170Z,5.18
2019-03-05T05:33:14.094Z,5.16
2019-03-05T05:38:26.344Z,5.19
2019-03-05T05:43:34.247Z,5.16
2019-03-05T05:54:16.868Z,5.08
2019-03-05T05:59:26.753Z,5.06
2019-03-05T06:04:39.427Z,4.99
2019-03-05T06:09:49.403Z,5.04
2019-03-05T06:20:26.979Z,5.01
2019-03-05T06:25:39.565Z,5.07
2019-03-05T06:30:49.511Z,5.18
2019-03-05T06:36:03.153Z,5.18
2019-03-05T06:41:13.161Z,5.25
2019-03-05T06:46:25.788Z,5.25
2019-03-05T06:51:40.201Z,5.21
2019-03-05T06:56:52.237Z,5.13
2019-03-05T07:01:58.571Z,5.15
2019-03-05T07:07:07.494Z,5.16
2019-03-05T07:12:52.075Z,5.26
2019-03-05T07:18:25.381Z,5.27
2019-03-05T07:24:05.794Z,5.38
2019-03-05T07:29:18.631Z,5.40
2019-03-05T07:34:31.140Z,5.38
2019-03-05T07:39:41.893Z,5.49
2019-03-05T07:44:53.237Z,5.51
2019-03-05T07:50:06.689Z,5.46
2019-03-05T07:55:20.487Z,5.45
2019-03-05T08:00:33.058Z,5.61
2019-03-05T08:05:50.870Z,5.61
2019-03-05T08:11:03.652Z,5.90
2019-03-05T08:16:19.223Z,6.38
2019-03-05T08:21:30.786Z,6.03
2019-03-05T08:26:45.287Z,6.03
2019-03-05T08:31:56.029Z,6.15
2019-03-05T08:37:05.999Z,6.14
2019-03-05T08:42:17.739Z,5.97
2019-03-05T08:47:26.739Z,6.30
2019-03-05T08:52:35.804Z,6.44
2019-03-05T08:57:43.928Z,6.27
2019-03-05T09:02:57.425Z,6.33
2019-03-05T09:08:09.187Z,6.74
2019-03-05T09:13:32.426Z,6.72
2019-03-05T09:18:30.334Z,6.69
2019-03-05T09:23:37.845Z,6.68
2019-03-05T09:28:52.461Z,6.98
2019-03-05T09:34:04.997Z,6.71
2019-03-05T09:39:15.875Z,6.83
2019-03-05T09:44:28.506Z,7.01
2019-03-05T09:49:36.365Z,6.93
2019-03-05T09:54:48.230Z,7.29
2019-03-05T10:00:02.966Z,7.50
2019-03-05T10:05:16.131Z,7.64
2019-03-05T10:10:29.464Z,8.76
2019-03-05T10:15:43.244Z,9.20
2019-03-05T10:20:55.089Z,9.05
2019-03-05T10:26:06.730Z,9.23
2019-03-05T10:31:18.898Z,8.44
2019-03-05T10:36:29.881Z,8.63
2019-03-05T10:41:39.064Z,10.12
2019-03-05T10:46:47.417Z,10.84
2019-03-05T10:51:55.748Z,11.64
2019-03-05T10:57:06.550Z,12.60
2019-03-05T11:02:15.777Z,10.37
2019-03-05T11:07:26.760Z,10.30
2019-03-05T11:12:37.681Z,10.78
2019-03-05T11:17:47.097Z,9.84
2019-03-05T11:22:57.848Z,10.33
2019-03-05T11:28:09.722Z,11.30
2019-03-05T11:33:23.285Z,10.76
2019-03-05T11:38:38.855Z,11.59
2019-03-05T11:43:51.532Z,11.41
2019-03-05T11:49:05.803Z,11.98
2019-03-05T11:54:13.850Z,13.94
2019-03-05T11:59:23.053Z,14.93
2019-03-05T12:04:35.623Z,13.95
2019-03-05T12:09:48.241Z,14.87
2019-03-05T12:14:58.949Z,13.51
2019-03-05T12:20:10.187Z,14.12
2019-03-05T12:25:24.068Z,15.68
2019-03-05T12:30:35.828Z,16.09
2019-03-05T12:35:43.705Z,12.91
2019-03-05T12:40:57.277Z,12.95
2019-03-05T12:46:08.917Z,13.27
2019-03-05T12:51:18.755Z,13.50
2019-03-05T12:56:28.468Z,13.45
2019-03-05T13:01:39.606Z,13.01
2019-03-05T13:06:51.050Z,11.31
2019-03-05T13:11:58.331Z,10.36
2019-03-05T13:17:10.946Z,11.27
2019-03-05T13:22:28.906Z,11.00
2019-03-05T13:27:37.478Z,11.33
2019-03-05T13:32:47.312Z,11.36
2019-03-05T13:38:03.127Z,11.33
2019-03-05T13:43:11.246Z,11.59
2019-03-05T13:48:34.523Z,11.95
2019-03-05T13:54:21.379Z,11.44
2019-03-05T13:59:55.528Z,11.07
2019-03-05T14:05:13.733Z,10.63
2019-03-05T14:10:22.693Z,10.87
2019-03-05T14:15:37.025Z,10.91
2019-03-05T14:20:47.079Z,11.07
2019-03-05T14:25:56.212Z,10.72
2019-03-05T14:31:09.003Z,10.84
2019-03-05T14:36:19.085Z,10.60
2019-03-05T14:41:25.183Z,10.73
2019-03-05T14:46:39.725Z,11.16
2019-03-05T14:51:50.958Z,12.25
2019-03-05T14:57:00.128Z,13.10
2019-03-05T15:02:11.338Z,12.98
2019-03-05T15:07:21.385Z,12.83
2019-03-05T15:12:30.309Z,12.05
2019-03-05T15:17:41.463Z,11.53
2019-03-05T15:22:48.558Z,10.89
2019-03-05T15:27:58.950Z,10.97
2019-03-05T15:33:07.951Z,10.84
2019-03-05T15:38:16.941Z,10.63
2019-03-05T15:43:28.709Z,10.35
2019-03-05T15:48:37.151Z,10.40
2019-03-05T15:53:49.814Z,10.35
2019-03-05T15:58:59.102Z,10.26
2019-03-05T16:04:10.220Z,10.20
2019-03-05T16:09:20.235Z,10.02
2019-03-05T16:14:32.887Z,9.95
2019-03-05T16:19:41.757Z,9.94
2019-03-05T16:25:13.828Z,9.86
2019-03-05T16:30:39.728Z,9.80
2019-03-05T16:36:05.480Z,9.77
2019-03-05T16:41:41.832Z,9.68
2019-03-05T16:46:58.153Z,9.61
2019-03-05T16:52:22.305Z,9.44
2019-03-05T16:57:49.465Z,9.29
2019-03-05T17:03:07.591Z,9.25
2019-03-05T17:08:42.485Z,9.12
2019-03-05T17:13:53.225Z,9.02
2019-03-05T17:19:00.550Z,8.96
2019-03-05T17:24:10.565Z,8.83
2019-03-05T17:29:21.656Z,8.71
2019-03-05T17:35:52.643Z,8.62
2019-03-05T17:41:04.580Z,8.54
2019-03-05T17:46:14.987Z,8.44
2019-03-05T17:51:25.299Z,8.32
2019-03-05T17:56:34.275Z,8.24
2019-03-05T18:01:46.217Z,8.19
2019-03-05T18:06:59.361Z,8.17
2019-03-05T18:12:07.007Z,8.16
2019-03-05T18:17:19.625Z,8.13
2019-03-05T18:22:32.359Z,8.06
2019-03-05T18:27:43.203Z,7.96
2019-03-05T18:32:56.003Z,7.92
2019-03-05T18:38:05.094Z,7.91
2019-03-05T18:43:14.330Z,7.84
2019-03-05T18:48:25.988Z,7.76
2019-03-05T18:53:40.274Z,7.71
2019-03-05T18:58:52.887Z,7.63
2019-03-05T19:04:03.781Z,7.62
2019-03-05T19:09:18.234Z,7.57
2019-03-05T19:14:31.758Z,7.49
2019-03-05T19:19:40.677Z,7.44
2019-03-05T19:24:49.522Z,7.41
2019-03-05T19:30:02.245Z,7.35
2019-03-05T19:35:13.318Z,7.33
2019-03-05T19:40:24.131Z,7.32
2019-03-05T19:45:39.598Z,7.33
2019-03-05T19:50:50.397Z,7.24
2019-03-05T19:55:59.860Z,7.16
2019-03-05T20:01:11.718Z,7.20
2019-03-05T20:06:19.005Z,7.22
2019-03-05T20:11:31.688Z,7.17
2019-03-05T20:17:00.107Z,7.13
2019-03-05T20:22:11.243Z,7.10
2019-03-05T20:27:22.278Z,7.10
2019-03-05T20:32:33.159Z,7.03
2019-03-05T20:37:45.967Z,7.03
2019-03-05T20:42:56.707Z,6.99
2019-03-05T20:48:09.065Z,6.97
2019-03-05T20:53:18.063Z,6.92
2019-03-05T20:58:27.399Z,6.93
2019-03-05T21:03:36.466Z,6.86
2019-03-05T21:08:47.279Z,6.85
2019-03-05T21:13:54.649Z,6.81
2019-03-05T21:19:02.594Z,6.79
2019-03-05T21:24:15.591Z,6.74
2019-03-05T21:29:25.411Z,6.70
2019-03-05T21:34:36.330Z,6.76
2019-03-05T21:39:45.309Z,6.76
2019-03-05T21:44:56.073Z,6.75
2019-03-05T21:50:03.416Z,6.77
2019-03-05T21:55:14.415Z,6.73
2019-03-05T22:00:27.812Z,6.76
2019-03-05T22:05:40.462Z,6.79
2019-03-05T22:10:56.099Z,6.77
2019-03-05T22:16:06.803Z,6.72
2019-03-05T22:21:18.519Z,6.71
2019-03-05T22:26:29.274Z,6.71
2019-03-05T22:31:40.427Z,6.72
2019-03-05T22:36:48.426Z,6.74
2019-03-05T22:41:58.284Z,6.81
2019-03-05T22:47:11.848Z,6.85
2019-03-05T22:52:21.190Z,6.84
2019-03-05T22:57:34.116Z,6.89
2019-03-05T23:02:43.749Z,6.94
2019-03-05T23:07:53.635Z,6.97
2019-03-05T23:13:04.454Z,7.03
2019-03-05T23:18:11.974Z,7.12
2019-03-05T23:23:21.872Z,7.11
2019-03-05T23:28:30.314Z,7.12
2019-03-05T23:33:40.146Z,7.17
2019-03-05T23:38:49.999Z,7.12
2019-03-05T23:43:57.290Z,7.20
2019-03-05T23:49:10.119Z,7.19
2019-03-05T23:54:18.794Z,7.25
2019-03-05T23:59:30.500Z,7.18
